Time;durP1;ratioP1;P1;durP2;ratioP2;P2;SDS_P1;SDS_P2;PMS_P1;PMS_P2;Temp;Humidity;BMP_temperature;BMP_pressure;BME280_temperature;BME280_humidity;BME280_pressure;Samples;Min_cycle;Max_cycle;Signal;HPM_P1;HPM_P2
2021/05/13 00:00:56;;;;;;;28.20;25.30;;;12.60;95.20;;;;;;4979003;28;20413;-91
2021/05/13 00:03:26;;;;;;;25.87;23.47;;;11.00;92.40;;;;;;4996293;28;20472;-91
2021/05/13 00:05:51;;;;;;;24.50;22.30;;;13.40;94.10;;;;;;4984518;28;20523;-91
2021/05/13 00:08:21;;;;;;;25.67;23.17;;;10.30;93.30;;;;;;4997288;28;20429;-91
2021/05/13 00:11:02;;;;;;;26.73;24.00;;;11.00;91.40;;;;;;4979417;28;20413;-92
2021/05/13 00:13:31;;;;;;;24.53;21.93;;;12.30;92.80;;;;;;4978877;28;20420;-91
2021/05/13 00:15:58;;;;;;;84.97;24.73;;;10.90;93.30;;;;;;4978963;28;20406;-91
2021/05/13 00:18:28;;;;;;;94.03;22.77;;;8.90;92.90;;;;;;4977400;28;20848;-91
2021/05/13 00:20:58;;;;;;;105.03;22.50;;;13.30;94.10;;;;;;4962352;28;20424;-91
2021/05/13 00:23:24;;;;;;;65.83;22.40;;;11.00;92.90;;;;;;4962803;28;20487;-92
2021/05/13 00:26:00;;;;;;;44.77;21.37;;;14.30;96.10;;;;;;4977777;28;20437;-91
2021/05/13 00:28:29;;;;;;;69.37;23.80;;;10.80;92.30;;;;;;4962476;28;20569;-91
2021/05/13 00:30:54;;;;;;;40.17;22.60;;;10.80;93.80;;;;;;4977800;28;20422;-92
2021/05/13 00:33:28;;;;;;;37.70;22.10;;;10.60;94.50;;;;;;4978537;28;20428;-91
2021/05/13 00:35:55;;;;;;;44.20;23.90;;;11.80;93.60;;;;;;4980387;28;20425;-91
2021/05/13 00:38:22;;;;;;;45.83;25.50;;;10.70;92.80;;;;;;4999813;28;20447;-90
2021/05/13 00:40:56;;;;;;;45.80;22.30;;;10.70;92.40;;;;;;4983329;28;20978;-91
2021/05/13 00:43:22;;;;;;;37.27;22.60;;;13.10;94.20;;;;;;4983480;28;20477;-91
2021/05/13 00:45:48;;;;;;;26.90;24.00;;;10.60;94.00;;;;;;4997653;28;20433;-90
2021/05/13 00:48:17;;;;;;;24.53;21.90;;;11.90;94.50;;;;;;4979332;28;20410;-91
2021/05/13 00:50:53;;;;;;;24.67;22.27;;;12.00;93.30;;;;;;4978871;28;20426;-91
2021/05/13 00:53:26;;;;;;;26.80;24.20;;;11.80;93.60;;;;;;4980010;28;20426;-91
2021/05/13 00:55:52;;;;;;;26.67;23.77;;;10.20;92.70;;;;;;4978565;28;20422;-92
2021/05/13 00:58:26;;;;;;;27.17;24.43;;;10.60;94.90;;;;;;4982617;28;20509;-92
2021/05/13 01:03:37;;;;;;;29.17;26.20;;;10.70;94.70;;;;;;4994784;28;20504;-92
2021/05/13 01:06:12;;;;;;;26.20;23.60;;;11.70;94.40;;;;;;4996171;28;20428;-91
2021/05/13 01:08:41;;;;;;;41.97;23.93;;;9.40;92.90;;;;;;4962406;28;20420;-91
2021/05/13 01:11:14;;;;;;;30.53;23.90;;;10.80;93.90;;;;;;4979158;28;20417;-91
2021/05/13 01:16:54;;;;;;;41.07;25.50;;;9.30;93.50;;;;;;4995328;28;20417;-91
2021/05/13 01:19:22;;;;;;;29.23;25.37;;;10.80;94.40;;;;;;4994505;28;20413;-91
2021/05/13 01:21:49;;;;;;;29.77;26.50;;;10.70;94.50;;;;;;4976394;28;20437;-91
2021/05/13 01:24:20;;;;;;;31.47;26.60;;;11.10;94.00;;;;;;4978081;28;20528;-91
2021/05/13 01:26:52;;;;;;;47.43;27.60;;;10.60;94.90;;;;;;4963590;28;20433;-91
2021/05/13 01:29:27;;;;;;;35.40;26.33;;;13.10;94.90;;;;;;4978566;28;20433;-91
2021/05/13 01:32:01;;;;;;;67.60;27.90;;;10.50;95.00;;;;;;4995551;28;20400;-91
2021/05/13 01:34:28;;;;;;;34.67;28.47;;;12.70;95.20;;;;;;4962657;28;20424;-91
2021/05/13 01:36:57;;;;;;;58.03;30.03;;;10.30;95.40;;;;;;4993597;28;20430;-90
2021/05/13 01:39:25;;;;;;;35.87;28.77;;;10.40;95.30;;;;;;4976499;28;20413;-90
2021/05/13 01:41:54;;;;;;;38.97;30.40;;;8.60;93.80;;;;;;4977177;28;20425;-91
2021/05/13 01:44:28;;;;;;;37.20;30.60;;;10.40;95.60;;;;;;4994022;28;20527;-90
2021/05/13 01:46:54;;;;;;;42.10;30.53;;;10.40;95.50;;;;;;4977416;28;20448;-91
2021/05/13 01:49:25;;;;;;;40.93;31.17;;;10.40;95.40;;;;;;4960896;28;20421;-91
2021/05/13 01:51:51;;;;;;;40.33;29.40;;;10.50;95.60;;;;;;4960675;28;20448;-91
2021/05/13 01:54:18;;;;;;;36.10;30.07;;;9.70;95.20;;;;;;4977400;28;20445;-91
2021/05/13 01:56:44;;;;;;;38.97;31.87;;;10.10;95.50;;;;;;4961762;28;20481;-91
2021/05/13 01:59:11;;;;;;;55.67;28.83;;;10.50;95.60;;;;;;4983207;28;20465;-91
2021/05/13 02:01:38;;;;;;;64.67;29.97;;;10.60;95.90;;;;;;4983114;28;20448;-91
2021/05/13 02:04:09;;;;;;;70.60;30.10;;;10.70;95.90;;;;;;4981209;28;20473;-90
2021/05/13 02:06:39;;;;;;;62.50;28.13;;;11.60;96.90;;;;;;4980484;28;20457;-92
2021/05/13 02:09:06;;;;;;;36.50;27.57;;;10.70;97.60;;;;;;4981683;28;20423;-91
2021/05/13 02:11:36;;;;;;;30.10;25.00;;;10.80;97.30;;;;;;4980544;28;20422;-92
2021/05/13 02:14:05;;;;;;;103.33;27.40;;;10.80;95.30;;;;;;4981820;28;20410;-92
2021/05/13 02:16:31;;;;;;;39.50;26.70;;;11.00;96.30;;;;;;4978332;28;20460;-91
2021/05/13 02:19:07;;;;;;;27.23;24.27;;;11.60;96.00;;;;;;4997525;28;20424;-92
2021/05/13 02:21:40;;;;;;;31.13;20.73;;;10.60;95.00;;;;;;4983393;28;20790;-91
2021/05/13 02:24:09;;;;;;;21.57;19.37;;;10.90;95.40;;;;;;4981249;28;20472;-91
2021/05/13 02:26:40;;;;;;;27.70;21.60;;;10.70;94.80;;;;;;4982624;28;20421;-90
2021/05/13 02:29:06;;;;;;;36.13;21.50;;;10.70;95.00;;;;;;4996682;28;20449;-90
2021/05/13 02:31:35;;;;;;;27.70;21.07;;;10.80;94.90;;;;;;4963556;28;20959;-91
2021/05/13 02:34:02;;;;;;;29.60;20.40;;;12.90;94.00;;;;;;4978789;28;20186;-91
2021/05/13 02:36:32;;;;;;;47.80;19.30;;;11.70;93.30;;;;;;4962634;28;20421;-90
2021/05/13 02:39:03;;;;;;;25.27;19.90;;;10.70;92.60;;;;;;4994107;28;20413;-90
2021/05/13 02:41:31;;;;;;;32.92;19.42;;;10.60;92.30;;;;;;4979112;28;20436;-90
2021/05/13 02:43:57;;;;;;;45.53;20.60;;;10.50;94.30;;;;;;4978265;28;20218;-90
2021/05/13 02:46:26;;;;;;;45.83;21.90;;;10.30;94.00;;;;;;4964408;28;20186;-90
2021/05/13 02:48:54;;;;;;;110.60;24.97;;;10.30;93.00;;;;;;4981619;28;20428;-90
2021/05/13 02:51:26;;;;;;;36.00;25.20;;;10.20;94.30;;;;;;4979178;28;20436;-90
2021/05/13 02:53:58;;;;;;;92.27;28.53;;;10.10;93.60;;;;;;4980086;28;20426;-91
2021/05/13 02:56:26;;;;;;;126.23;25.97;;;11.10;95.00;;;;;;4996570;28;20413;-90
2021/05/13 02:59:31;;;;;;;140.87;26.27;;;11.90;95.80;;;;;;4979176;28;20456;-91
2021/05/13 03:02:00;;;;;;;71.33;21.67;;;11.40;95.00;;;;;;4978497;28;20484;-90
2021/05/13 03:04:29;;;;;;;33.03;20.60;;;10.40;94.70;;;;;;4979322;28;20477;-90
2021/05/13 03:06:56;;;;;;;67.40;19.53;;;11.20;93.80;;;;;;4995937;28;20473;-91
2021/05/13 03:09:23;;;;;;;52.43;21.40;;;10.30;94.60;;;;;;4978017;28;20437;-91
2021/05/13 03:11:54;;;;;;;45.13;23.10;;;10.30;94.60;;;;;;4979623;28;20416;-91
2021/05/13 03:14:23;;;;;;;25.63;23.10;;;10.10;94.20;;;;;;4979950;28;20446;-92
2021/05/13 03:16:58;;;;;;;31.93;24.60;;;10.00;94.80;;;;;;4996636;28;20422;-91
2021/05/13 03:19:32;;;;;;;28.90;25.30;;;9.80;94.30;;;;;;4963927;28;20433;-91
2021/05/13 03:22:09;;;;;;;34.43;24.00;;;10.60;94.10;;;;;;4964260;28;20405;-91
2021/05/13 03:24:54;;;;;;;28.43;24.17;;;10.10;93.60;;;;;;4997666;28;20417;-92
2021/05/13 03:27:40;;;;;;;27.70;24.37;;;10.10;93.30;;;;;;4967063;28;20414;-92
2021/05/13 03:30:19;;;;;;;27.40;23.43;;;10.10;93.60;;;;;;4982825;28;20433;-91
2021/05/13 03:32:49;;;;;;;25.97;23.30;;;10.50;93.90;;;;;;4980489;28;20425;-91
2021/05/13 03:35:17;;;;;;;23.57;21.23;;;9.90;94.40;;;;;;4997563;28;20425;-89
2021/05/13 03:37:43;;;;;;;25.37;22.80;;;10.20;93.60;;;;;;4979908;28;20522;-90
2021/05/13 03:40:15;;;;;;;24.97;22.33;;;10.20;95.00;;;;;;4997477;28;20417;-90
2021/05/13 03:42:45;;;;;;;24.80;22.40;;;10.30;94.60;;;;;;4996216;28;20453;-91
2021/05/13 03:45:18;;;;;;;22.53;20.33;;;11.30;94.00;;;;;;4996953;28;20174;-90
2021/05/13 03:47:53;;;;;;;22.97;20.50;;;10.20;94.30;;;;;;4977204;28;20421;-89
2021/05/13 03:50:23;;;;;;;21.97;19.77;;;12.60;94.70;;;;;;4995127;28;20413;-89
2021/05/13 03:52:50;;;;;;;21.30;19.37;;;10.50;93.50;;;;;;4977858;28;20466;-90
2021/05/13 03:55:24;;;;;;;19.97;18.07;;;10.00;93.70;;;;;;4961231;28;20442;-90
2021/05/13 03:57:51;;;;;;;21.87;19.90;;;9.50;92.80;;;;;;4962949;28;20425;-90
2021/05/13 04:03:13;;;;;;;22.02;20.02;;;9.80;92.80;;;;;;4983774;28;20295;-90
2021/05/13 04:05:44;;;;;;;20.50;18.60;;;10.50;93.60;;;;;;4978655;28;20189;-90
2021/05/13 04:08:24;;;;;;;21.58;19.48;;;9.90;93.10;;;;;;4963223;28;20198;-90
2021/05/13 04:10:52;;;;;;;22.97;20.77;;;12.60;94.10;;;;;;4995422;28;20154;-91
2021/05/13 04:13:19;;;;;;;21.83;19.30;;;10.00;93.80;;;;;;4980887;28;20425;-90
2021/05/13 04:15:47;;;;;;;19.50;17.60;;;9.10;94.20;;;;;;4983586;28;20456;-88
2021/05/13 04:18:14;;;;;;;20.30;18.30;;;10.10;93.10;;;;;;4983357;28;20485;-91
2021/05/13 04:20:41;;;;;;;20.87;17.20;;;9.80;93.50;;;;;;4997756;28;20512;-90
2021/05/13 04:23:09;;;;;;;21.37;19.33;;;10.30;92.60;;;;;;4980082;28;20504;-90
2021/05/13 04:25:40;;;;;;;26.67;18.50;;;10.20;91.00;;;;;;4994841;28;20409;-90
2021/05/13 04:28:06;;;;;;;20.80;17.80;;;10.10;92.80;;;;;;4974192;28;20428;-90
2021/05/13 04:30:32;;;;;;;27.83;17.00;;;8.50;92.70;;;;;;4974559;28;20417;-90
2021/05/13 04:33:03;;;;;;;30.80;19.53;;;10.00;93.30;;;;;;4975372;28;20456;-90
2021/05/13 04:35:32;;;;;;;22.48;20.17;;;9.90;93.00;;;;;;4960424;28;20185;-91
2021/05/13 04:38:01;;;;;;;21.20;18.87;;;9.80;93.00;;;;;;4976299;28;20178;-91
2021/05/13 04:40:31;;;;;;;23.10;19.23;;;9.80;94.60;;;;;;4978850;28;20410;-91
2021/05/13 04:43:01;;;;;;;21.97;19.87;;;9.90;94.70;;;;;;4966864;28;20457;-90
2021/05/13 04:45:27;;;;;;;30.47;19.87;;;11.10;93.20;;;;;;4967816;28;20433;-90
2021/05/13 04:48:06;;;;;;;22.90;20.57;;;10.10;93.50;;;;;;4982271;28;20430;-91
2021/05/13 04:50:33;;;;;;;23.70;21.40;;;8.20;91.40;;;;;;4982662;28;20441;-90
2021/05/13 04:53:08;;;;;;;24.50;21.93;;;10.20;93.50;;;;;;4961068;28;20421;-91
2021/05/13 04:55:44;;;;;;;22.10;19.83;;;11.30;92.80;;;;;;4994263;28;20405;-91
2021/05/13 04:58:11;;;;;;;23.73;21.33;;;9.00;91.80;;;;;;4971376;28;20428;-90
2021/05/13 05:00:37;;;;;;;20.80;18.70;;;10.40;92.90;;;;;;4956550;28;20893;-89
2021/05/13 05:03:05;;;;;;;19.30;17.57;;;10.50;92.80;;;;;;4972429;28;20469;-90
2021/05/13 05:05:37;;;;;;;18.20;16.60;;;10.70;78.70;;;;;;4975473;28;20432;-90
2021/05/13 05:08:07;;;;;;;18.50;16.80;;;11.20;80.30;;;;;;4976822;28;20437;-90
2021/05/13 05:10:43;;;;;;;16.27;14.90;;;10.30;77.10;;;;;;4991767;28;20417;-90
2021/05/13 05:13:08;;;;;;;14.03;13.10;;;11.00;78.80;;;;;;4976270;28;20463;-90
2021/05/13 05:15:36;;;;;;;14.90;13.50;;;10.90;78.70;;;;;;4991232;28;20433;-90
2021/05/13 05:18:05;;;;;;;15.83;14.60;;;11.20;79.00;;;;;;4973834;28;20425;-90
2021/05/13 05:20:35;;;;;;;14.43;13.53;;;12.20;80.10;;;;;;4974351;28;20460;-90
2021/05/13 05:23:02;;;;;;;14.70;13.60;;;11.20;77.70;;;;;;4990644;28;20576;-89
2021/05/13 05:25:30;;;;;;;15.23;13.87;;;12.50;80.70;;;;;;4968470;28;20414;-90
2021/05/13 05:27:57;;;;;;;24.80;15.00;;;11.20;75.30;;;;;;4967026;28;20253;-91
2021/05/13 05:30:24;;;;;;;14.73;13.63;;;12.80;78.40;;;;;;4984741;28;20425;-90
2021/05/13 05:32:49;;;;;;;14.33;13.33;;;12.70;79.40;;;;;;4967899;28;20433;-90
2021/05/13 05:35:15;;;;;;;15.33;14.13;;;12.00;75.80;;;;;;4965616;28;20487;-90
2021/05/13 05:37:41;;;;;;;15.30;14.07;;;11.90;73.50;;;;;;4979383;28;20166;-90
2021/05/13 05:40:08;;;;;;;15.17;14.17;;;12.60;74.80;;;;;;4959700;28;20189;-90
2021/05/13 05:42:34;;;;;;;15.10;14.00;;;12.90;72.10;;;;;;4961616;28;20457;-90
2021/05/13 05:44:59;;;;;;;14.20;13.10;;;13.90;73.30;;;;;;4962976;28;20497;-91
2021/05/13 05:47:25;;;;;;;13.90;12.70;;;14.20;71.20;;;;;;4980884;28;20535;-91
2021/05/13 05:49:54;;;;;;;14.50;13.40;;;14.40;70.20;;;;;;4983744;28;20173;-90
2021/05/13 05:52:19;;;;;;;17.13;15.27;;;14.30;70.70;;;;;;4965202;28;20170;-90
2021/05/13 05:54:47;;;;;;;15.90;14.50;;;13.50;67.70;;;;;;4964336;28;20436;-91
2021/05/13 05:57:13;;;;;;;16.50;15.07;;;14.40;70.60;;;;;;4981687;28;20163;-90
2021/05/13 05:59:39;;;;;;;17.43;15.97;;;13.70;71.90;;;;;;4964958;28;20478;-90
2021/05/13 06:02:05;;;;;;;14.83;13.80;;;13.00;70.70;;;;;;4966799;28;20205;-90
2021/05/13 06:04:31;;;;;;;16.03;14.83;;;11.60;71.40;;;;;;4964413;28;20239;-91
2021/05/13 06:06:56;;;;;;;17.00;15.53;;;15.10;75.80;;;;;;4979796;28;20504;-90
2021/05/13 06:09:22;;;;;;;15.10;14.00;;;14.30;71.70;;;;;;4960083;28;20220;-90
2021/05/13 06:11:48;;;;;;;15.40;14.30;;;13.30;71.50;;;;;;4976494;28;20166;-91
2021/05/13 06:14:13;;;;;;;15.77;14.43;;;13.90;68.20;;;;;;4958919;28;20182;-90
2021/05/13 06:16:39;;;;;;;14.60;13.60;;;14.20;67.30;;;;;;4957780;28;20245;-90
2021/05/13 06:19:04;;;;;;;14.50;13.03;;;15.60;65.90;;;;;;4975548;28;20254;-90
2021/05/13 06:21:30;;;;;;;15.37;13.67;;;15.30;61.70;;;;;;4975288;28;20704;-90
2021/05/13 06:24:00;;;;;;;15.10;14.10;;;17.40;61.10;;;;;;4956688;28;20217;-89
2021/05/13 06:26:31;;;;;;;12.87;12.10;;;16.70;58.60;;;;;;4974073;28;20270;-89
2021/05/13 06:28:56;;;;;;;13.93;12.93;;;17.10;57.40;;;;;;4974017;28;20402;-88
2021/05/13 06:31:25;;;;;;;14.20;13.00;;;17.40;57.20;;;;;;4973805;28;20463;-88
2021/05/13 06:33:50;;;;;;;12.80;12.10;;;19.00;56.90;;;;;;4973918;28;20174;-88
2021/05/13 06:36:16;;;;;;;14.90;13.70;;;18.60;54.70;;;;;;4974242;28;20418;-89
2021/05/13 06:38:43;;;;;;;14.50;13.53;;;19.20;54.90;;;;;;4973790;28;20696;-88
2021/05/13 06:41:09;;;;;;;12.87;12.10;;;19.10;53.90;;;;;;4973546;28;20424;-89
2021/05/13 06:43:37;;;;;;;12.80;11.70;;;19.60;53.10;;;;;;4976416;28;20461;-89
2021/05/13 06:46:06;;;;;;;12.50;11.80;;;19.10;52.00;;;;;;4977684;28;20413;-88
2021/05/13 06:48:34;;;;;;;12.83;12.03;;;20.10;52.00;;;;;;4977609;28;20875;-88
2021/05/13 06:51:00;;;;;;;12.83;11.93;;;19.10;51.10;;;;;;4960539;28;20428;-88
2021/05/13 06:53:25;;;;;;;13.27;12.37;;;20.40;51.80;;;;;;4977547;28;20418;-88
2021/05/13 06:55:52;;;;;;;13.17;12.47;;;20.10;52.50;;;;;;4977213;28;20429;-88
2021/05/13 06:58:21;;;;;;;14.90;13.80;;;20.40;52.00;;;;;;4959897;28;20305;-89
2021/05/13 07:00:48;;;;;;;13.20;12.40;;;20.40;51.70;;;;;;4977248;28;20421;-89
2021/05/13 07:03:17;;;;;;;12.90;12.20;;;21.20;51.10;;;;;;4285562;28;10000737;-88
2021/05/13 07:05:43;;;;;;;13.63;12.73;;;21.70;50.20;;;;;;4958303;28;20178;-88
2021/05/13 07:08:12;;;;;;;15.23;14.13;;;21.70;49.80;;;;;;4958801;28;20837;-88
2021/05/13 07:10:38;;;;;;;14.70;13.60;;;21.30;49.70;;;;;;4939018;29;20426;-89
2021/05/13 07:13:06;;;;;;;16.47;15.27;;;21.00;50.60;;;;;;4958295;29;20406;-88
2021/05/13 07:15:33;;;;;;;14.97;13.87;;;21.00;50.20;;;;;;4955766;29;20419;-88
2021/05/13 07:17:59;;;;;;;15.70;14.70;;;21.40;51.00;;;;;;4955451;29;20414;-87
2021/05/13 07:20:24;;;;;;;16.80;15.50;;;21.80;51.50;;;;;;4955243;29;20439;-89
2021/05/13 07:22:52;;;;;;;16.60;15.30;;;21.10;50.70;;;;;;4955135;29;20557;-88
2021/05/13 07:25:19;;;;;;;15.23;13.67;;;20.50;50.20;;;;;;4954232;28;20175;-88
2021/05/13 07:27:44;;;;;;;14.60;13.60;;;21.80;49.90;;;;;;4955797;29;20423;-87
2021/05/13 07:30:14;;;;;;;14.10;13.10;;;22.70;48.50;;;;;;4941392;29;20477;-88
2021/05/13 07:32:40;;;;;;;12.63;11.57;;;22.90;47.80;;;;;;4959957;29;20170;-89
2021/05/13 07:35:09;;;;;;;11.53;10.83;;;24.20;46.10;;;;;;4956715;28;20469;-88
2021/05/13 07:37:37;;;;;;;13.07;11.97;;;25.10;45.10;;;;;;4957108;29;20419;-89
2021/05/13 07:40:04;;;;;;;11.57;10.70;;;25.40;43.70;;;;;;4957253;29;20407;-88
2021/05/13 07:42:29;;;;;;;10.60;10.10;;;25.70;43.50;;;;;;4959387;29;20422;-89
2021/05/13 07:44:55;;;;;;;9.67;9.27;;;26.20;43.30;;;;;;4959070;29;20477;-88
2021/05/13 07:47:22;;;;;;;10.57;9.80;;;26.80;40.90;;;;;;4941965;29;20183;-89
2021/05/13 07:49:48;;;;;;;10.53;10.03;;;25.60;39.80;;;;;;4962213;28;20170;-89
2021/05/13 07:52:14;;;;;;;9.80;9.30;;;27.90;39.60;;;;;;4976321;28;20473;-89
2021/05/13 07:54:42;;;;;;;9.63;8.90;;;27.90;38.20;;;;;;4975695;28;20162;-88
2021/05/13 07:57:08;;;;;;;9.23;8.73;;;27.20;37.50;;;;;;4975966;28;20181;-88
2021/05/13 07:59:36;;;;;;;9.53;9.13;;;28.20;37.50;;;;;;4976025;28;20457;-89
2021/05/13 08:02:04;;;;;;;9.53;9.03;;;27.50;35.60;;;;;;4976878;28;20186;-89
2021/05/13 08:04:29;;;;;;;8.50;8.10;;;27.70;34.60;;;;;;4960713;28;20859;-89
2021/05/13 08:06:55;;;;;;;10.40;9.90;;;28.40;35.40;;;;;;4976373;28;20422;-89
2021/05/13 08:09:20;;;;;;;7.77;7.37;;;28.30;35.80;;;;;;4975547;28;20178;-89
2021/05/13 08:11:46;;;;;;;8.47;8.10;;;28.80;35.00;;;;;;4959004;28;20270;-90
2021/05/13 08:14:11;;;;;;;8.90;8.40;;;29.30;34.20;;;;;;4976099;28;20249;-89
2021/05/13 08:16:37;;;;;;;8.67;8.17;;;29.20;33.70;;;;;;4959430;28;20266;-89
2021/05/13 08:19:03;;;;;;;8.03;7.53;;;29.40;33.90;;;;;;4977931;28;20509;-88
2021/05/13 08:21:28;;;;;;;7.83;7.53;;;29.20;32.90;;;;;;4958381;28;20269;-89
2021/05/13 08:23:54;;;;;;;7.90;7.40;;;28.90;33.60;;;;;;4975384;28;20980;-88
2021/05/13 08:26:24;;;;;;;7.03;6.60;;;29.30;33.90;;;;;;4975516;28;20201;-87
2021/05/13 08:28:50;;;;;;;7.60;7.00;;;29.50;32.50;;;;;;4975669;28;20194;-89
2021/05/13 08:31:24;;;;;;;7.20;6.93;;;28.20;32.30;;;;;;4975369;28;20830;-89
2021/05/13 08:33:50;;;;;;;7.23;6.97;;;28.90;32.10;;;;;;4975071;28;20464;-89
2021/05/13 08:36:18;;;;;;;7.23;6.93;;;29.80;30.60;;;;;;4974946;28;20425;-89
2021/05/13 08:38:43;;;;;;;6.43;6.23;;;30.00;31.00;;;;;;4975583;28;20196;-88
2021/05/13 08:41:10;;;;;;;6.20;6.03;;;30.00;30.30;;;;;;4958519;28;20948;-88
2021/05/13 08:43:36;;;;;;;7.17;6.87;;;29.80;31.60;;;;;;4975565;28;20197;-90
2021/05/13 08:46:01;;;;;;;7.73;7.40;;;28.60;29.10;;;;;;4975065;28;20424;-89
2021/05/13 08:48:30;;;;;;;7.10;6.80;;;30.20;30.80;;;;;;4975065;28;20252;-89
2021/05/13 08:50:57;;;;;;;6.00;5.90;;;29.60;30.40;;;;;;4975977;28;20174;-89
2021/05/13 08:53:22;;;;;;;6.63;6.43;;;30.10;29.80;;;;;;4958190;28;20537;-88
2021/05/13 08:55:52;;;;;;;7.13;6.83;;;31.10;29.10;;;;;;4958814;28;20991;-89
2021/05/13 08:58:17;;;;;;;7.10;6.70;;;30.90;29.40;;;;;;4974726;28;20222;-89
2021/05/13 09:00:54;;;;;;;6.70;6.30;;;31.00;29.10;;;;;;4975806;28;20417;-89
2021/05/13 09:03:36;;;;;;;6.10;5.93;;;31.10;29.30;;;;;;4964114;28;20267;-87
2021/05/13 09:06:06;;;;;;;7.10;6.70;;;30.70;29.20;;;;;;4979246;28;20441;-88
2021/05/13 09:08:33;;;;;;;6.87;6.47;;;30.90;29.10;;;;;;4965522;28;20445;-89
2021/05/13 09:11:17;;;;;;;5.87;5.47;;;30.40;29.40;;;;;;4937129;28;20843;-89
2021/05/13 09:13:48;;;;;;;5.73;5.40;;;31.60;29.00;;;;;;4939227;29;20473;-90
2021/05/13 09:16:30;;;;;;;6.00;5.70;;;30.50;28.40;;;;;;4939614;29;20418;-89
2021/05/13 09:18:56;;;;;;;5.80;5.60;;;30.50;28.90;;;;;;4259584;28;10000738;-87
2021/05/13 09:21:23;;;;;;;5.57;5.10;;;30.40;27.90;;;;;;4955402;28;20189;-88
2021/05/13 09:23:49;;;;;;;5.63;5.10;;;30.30;27.60;;;;;;4954520;28;20519;-88
2021/05/13 09:26:21;;;;;;;5.07;4.90;;;31.00;27.40;;;;;;4954629;28;20433;-85
2021/05/13 09:29:08;;;;;;;4.80;4.70;;;31.00;28.20;;;;;;4954429;28;20440;-87
2021/05/13 09:31:39;;;;;;;5.23;5.13;;;30.90;28.10;;;;;;4972320;28;20508;-87
2021/05/13 09:34:09;;;;;;;4.13;4.03;;;30.90;28.30;;;;;;4969159;28;20434;-88
2021/05/13 09:36:36;;;;;;;3.83;3.83;;;30.80;27.80;;;;;;4961820;28;20429;-86
2021/05/13 09:39:34;;;;;;;4.40;4.20;;;31.30;27.40;;;;;;4966292;28;20421;-88
2021/05/13 09:42:00;;;;;;;4.47;4.20;;;31.90;27.40;;;;;;4914442;28;20473;-87
2021/05/13 09:44:46;;;;;;;3.80;3.70;;;32.00;27.70;;;;;;4974416;28;20814;-89
2021/05/13 09:47:26;;;;;;;4.23;4.03;;;32.30;26.10;;;;;;4957843;28;20421;-89
2021/05/13 09:50:05;;;;;;;3.73;3.57;;;32.20;26.70;;;;;;4955312;28;20428;-88
2021/05/13 09:52:47;;;;;;;3.93;3.80;;;32.90;26.40;;;;;;4975876;28;20459;-89
2021/05/13 09:55:36;;;;;;;4.13;4.00;;;32.80;25.70;;;;;;4975109;28;20421;-88
2021/05/13 09:58:07;;;;;;;6.00;5.73;;;33.20;26.10;;;;;;4971005;28;20422;-87
2021/05/13 10:00:34;;;;;;;3.60;3.40;;;33.20;26.00;;;;;;4973213;28;20437;-87
2021/05/13 10:03:05;;;;;;;4.60;4.30;;;33.80;25.40;;;;;;4960252;28;20453;-89
2021/05/13 10:05:30;;;;;;;3.37;3.07;;;34.40;25.30;;;;;;4963877;28;20429;-90
2021/05/13 10:07:56;;;;;;;3.87;3.77;;;34.00;25.70;;;;;;4983471;28;20397;-84
2021/05/13 10:10:21;;;;;;;4.70;4.27;;;33.30;24.90;;;;;;4972016;28;20320;-84
2021/05/13 10:12:54;;;;;;;3.87;3.43;;;31.90;25.20;;;;;;4972573;28;20166;-82
2021/05/13 10:15:19;;;;;;;3.30;3.10;;;30.10;26.20;;;;;;4627183;28;10000220;-83
2021/05/13 10:17:46;;;;;;;3.97;3.60;;;29.20;26.60;;;;;;4972053;28;20170;-82
2021/05/13 10:20:15;;;;;;;3.53;3.33;;;28.40;27.30;;;;;;4974486;28;20178;-83
2021/05/13 10:22:45;;;;;;;2.97;2.87;;;27.90;27.70;;;;;;4975128;28;21001;-82
2021/05/13 10:25:18;;;;;;;3.67;3.37;;;28.30;28.00;;;;;;4974822;28;20885;-83
2021/05/13 10:28:12;;;;;;;3.40;3.20;;;28.20;27.90;;;;;;4956923;28;20425;-83
2021/05/13 10:30:37;;;;;;;3.93;3.73;;;29.00;27.90;;;;;;4971204;28;20444;-83
2021/05/13 10:33:07;;;;;;;3.67;3.57;;;30.10;27.40;;;;;;4974292;28;20425;-84
2021/05/13 10:35:37;;;;;;;2.70;2.60;;;30.30;27.10;;;;;;4974828;28;20265;-84
2021/05/13 10:38:09;;;;;;;3.17;3.07;;;30.90;26.00;;;;;;4975328;28;20405;-82
2021/05/13 10:40:46;;;;;;;3.00;2.90;;;31.60;26.00;;;;;;4976085;28;20734;-84
2021/05/13 10:43:12;;;;;;;2.47;2.30;;;32.00;25.50;;;;;;4974825;28;20461;-83
2021/05/13 10:45:40;;;;;;;3.10;3.00;;;31.90;25.80;;;;;;4957122;28;20449;-84
2021/05/13 10:48:21;;;;;;;3.53;3.33;;;32.80;25.20;;;;;;4954103;28;20264;-84
2021/05/13 10:50:48;;;;;;;2.90;2.60;;;33.00;25.30;;;;;;4968500;28;20421;-84
2021/05/13 10:53:50;;;;;;;3.30;3.20;;;33.30;25.00;;;;;;4976092;28;20410;-84
2021/05/13 10:56:28;;;;;;;4.40;4.00;;;32.00;25.90;;;;;;4958192;28;20849;-84
2021/05/13 10:58:59;;;;;;;4.40;4.00;;;32.10;25.80;;;;;;4957983;28;20487;-84
2021/05/13 11:01:46;;;;;;;4.30;4.10;;;32.30;26.00;;;;;;4957672;28;20409;-85
2021/05/13 11:04:24;;;;;;;4.40;4.00;;;32.80;26.00;;;;;;4975399;28;20874;-83
2021/05/13 11:06:55;;;;;;;7.60;7.00;;;33.10;25.70;;;;;;4975896;28;20412;-83
2021/05/13 11:09:46;;;;;;;4.57;4.30;;;32.30;25.80;;;;;;4975627;28;20441;-81
2021/05/13 11:12:54;;;;;;;3.40;3.30;;;31.60;25.90;;;;;;4974954;28;20915;-83
2021/05/13 11:15:26;;;;;;;3.80;3.70;;;31.70;25.80;;;;;;4964644;28;20499;-83
2021/05/13 11:18:00;;;;;;;3.33;3.13;;;31.80;25.00;;;;;;4975283;28;20549;-84
2021/05/13 11:20:44;;;;;;;3.07;2.97;;;32.80;24.90;;;;;;4630843;28;9999770;-85
2021/05/13 11:23:15;;;;;;;2.50;2.40;;;33.10;24.50;;;;;;4976043;28;20315;-84
2021/05/13 11:25:51;;;;;;;4.90;2.90;;;31.80;24.80;;;;;;4956335;28;20433;-83
2021/05/13 11:28:37;;;;;;;3.20;3.10;;;30.90;25.40;;;;;;4972776;28;20823;-85
2021/05/13 11:31:07;;;;;;;6.20;4.10;;;29.30;26.70;;;;;;4972554;28;20624;-84
2021/05/13 11:33:47;;;;;;;3.20;3.10;;;28.20;27.20;;;;;;4973867;28;20500;-84
2021/05/13 11:36:16;;;;;;;3.30;3.10;;;28.20;27.40;;;;;;4957882;28;20421;-85
2021/05/13 11:38:43;;;;;;;4.10;3.87;;;28.90;27.10;;;;;;4974972;28;20564;-84
2021/05/13 11:41:09;;;;;;;3.30;3.20;;;30.30;26.80;;;;;;4975717;28;20421;-84
2021/05/13 11:43:36;;;;;;;3.33;3.23;;;30.90;25.90;;;;;;4975094;28;20454;-84
2021/05/13 11:46:11;;;;;;;2.80;2.70;;;31.70;25.40;;;;;;4974956;28;20433;-85
2021/05/13 11:48:41;;;;;;;2.33;2.23;;;31.90;24.60;;;;;;4975173;28;20408;-84
2021/05/13 11:51:12;;;;;;;3.20;2.93;;;32.50;24.60;;;;;;4975304;28;20496;-84
2021/05/13 11:53:43;;;;;;;2.83;2.70;;;32.90;24.10;;;;;;4958183;28;20435;-83
2021/05/13 11:56:10;;;;;;;2.80;2.70;;;31.70;24.70;;;;;;4975830;28;20436;-84
2021/05/13 11:58:48;;;;;;;3.13;2.83;;;32.00;24.40;;;;;;4960678;28;20461;-83
2021/05/13 12:01:23;;;;;;;2.70;2.50;;;30.80;24.40;;;;;;4975824;28;20427;-84
2021/05/13 12:03:58;;;;;;;2.77;2.57;;;30.10;25.30;;;;;;4975450;28;20827;-83
2021/05/13 12:06:24;;;;;;;2.53;2.40;;;29.70;25.10;;;;;;4958895;28;20420;-83
2021/05/13 12:08:49;;;;;;;2.90;2.70;;;29.40;25.60;;;;;;4975960;28;20487;-83
2021/05/13 12:11:31;;;;;;;3.87;2.57;;;29.80;25.50;;;;;;4958449;28;20422;-83
2021/05/13 12:13:58;;;;;;;4.20;3.90;;;30.90;25.70;;;;;;4957740;28;20574;-84
2021/05/13 12:16:27;;;;;;;2.33;2.23;;;31.80;24.20;;;;;;4974736;28;20422;-84
2021/05/13 12:18:56;;;;;;;2.40;2.30;;;32.50;24.20;;;;;;4975352;28;20866;-84
2021/05/13 12:21:22;;;;;;;3.53;3.00;;;33.10;23.60;;;;;;4958476;28;20425;-84
2021/05/13 12:23:51;;;;;;;13.13;3.97;;;33.40;23.60;;;;;;4975733;28;20983;-85
2021/05/13 12:26:22;;;;;;;2.93;2.83;;;32.00;24.50;;;;;;4974920;28;20488;-85
2021/05/13 12:28:48;;;;;;;20.57;19.00;;;30.10;24.90;;;;;;4957762;28;20426;-83
2021/05/13 12:31:36;;;;;;;2.20;2.13;;;29.80;25.10;;;;;;4957761;28;20453;-84
2021/05/13 12:34:05;;;;;;;1.70;1.70;;;30.30;25.00;;;;;;4975241;28;20409;-83
2021/05/13 12:36:32;;;;;;;1.70;1.60;;;30.60;24.40;;;;;;4975872;28;20439;-83
2021/05/13 12:38:58;;;;;;;1.80;1.80;;;31.50;24.30;;;;;;4973738;28;20439;-84
2021/05/13 12:41:26;;;;;;;3.53;2.90;;;31.60;23.90;;;;;;4968128;28;20468;-84
2021/05/13 12:44:08;;;;;;;2.37;2.27;;;31.90;24.30;;;;;;4959471;28;21014;-84
2021/05/13 12:46:49;;;;;;;2.80;2.60;;;32.60;24.10;;;;;;4951829;29;20970;-85
2021/05/13 12:49:20;;;;;;;2.43;1.87;;;33.50;23.60;;;;;;4959451;29;20430;-91
2021/05/13 12:52:08;;;;;;;3.20;2.00;;;32.80;23.10;;;;;;4965596;29;20439;-89
2021/05/13 12:54:35;;;;;;;0.90;0.90;;;33.60;22.30;;;;;;4943033;29;20462;-88
2021/05/13 12:57:16;;;;;;;1.73;1.60;;;32.20;22.30;;;;;;4956994;29;20870;-87
2021/05/13 12:59:43;;;;;;;2.70;2.60;;;32.60;22.70;;;;;;4270998;28;10000716;-87